Time;durP1;ratioP1;P1;durP2;ratioP2;P2;SDS_P1;SDS_P2;PMS_P1;PMS_P2;Temp;Humidity;BMP_temperature;BMP_pressure;BME280_temperature;BME280_humidity;BME280_pressure;Samples;Min_cycle;Max_cycle;Signal;HPM_P1;HPM_P2
2022/04/03 07:09:05;;;;;;;;;;;;;;;7.52;100.00;98008.75;5259882;24;19985;-73
2022/04/03 07:11:32;;;;;;;;;;;;;;;7.37;100.00;98009.81;4828055;29;19962;-73
2022/04/03 07:14:00;;;;;;;;;;;;;;;7.29;100.00;98013.69;4816447;29;19955;-73
2022/04/03 07:16:28;;;;;;;;;;;;;;;7.21;100.00;98014.84;4811386;29;19985;-72
2022/04/03 07:18:56;;;;;;;;;;;;;;;7.23;100.00;98018.03;4813722;29;19963;-74
2022/04/03 07:21:24;;;;;;;;;;;;;;;6.95;100.00;98020.50;4823667;29;20335;-73
2022/04/03 07:23:51;;;;;;;;;;;;;;;6.86;100.00;98026.38;4827741;29;19960;-73
2022/04/03 07:26:18;;;;;;;;;;;;;;;6.87;100.00;98032.75;4827535;29;20267;-73
2022/04/03 07:28:46;;;;;;;;;;;;;;;6.95;100.00;98026.88;4828504;29;19976;-74
2022/04/03 07:31:13;;;;;;;;;;;;;;;7.04;100.00;98024.56;4828000;29;19962;-74
2022/04/03 07:33:40;;;;;;;;;;;;;;;7.20;100.00;98024.34;4823814;29;19966;-73
2022/04/03 07:36:08;;;;;;;;;;;;;;;7.28;100.00;98032.41;4820566;29;19966;-74
2022/04/03 07:38:35;;;;;;;;;;;;;;;7.32;100.00;98026.03;4827416;29;19960;-74
2022/04/03 07:41:03;;;;;;;;;;;;;;;7.41;100.00;98029.34;4826940;29;20244;-73
2022/04/03 07:43:32;;;;;;;;;;;;;;;7.47;100.00;98041.69;4827373;29;19958;-74
2022/04/03 07:45:59;;;;;;;;;;;;;;;7.52;100.00;98041.34;4827790;29;19989;-74
2022/04/03 07:48:27;;;;;;;;;;;;;;;7.67;100.00;98049.44;4819177;29;19978;-73
2022/04/03 07:50:54;;;;;;;;;;;;;;;7.84;100.00;98048.78;4819421;29;19968;-73
2022/04/03 07:53:21;;;;;;;;;;;;;;;7.99;100.00;98057.22;4825352;29;19965;-74
2022/04/03 07:55:49;;;;;;;;;;;;;;;8.09;100.00;98057.31;4823778;29;19965;-74
2022/04/03 07:58:17;;;;;;;;;;;;;;;8.16;100.00;98059.34;4825488;29;19953;-73
2022/04/03 08:00:46;;;;;;;;;;;;;;;8.33;100.00;98064.25;4822351;29;19959;-74
2022/04/03 08:03:14;;;;;;;;;;;;;;;8.60;100.00;98062.81;4826000;29;19958;-74
2022/04/03 08:05:42;;;;;;;;;;;;;;;8.99;100.00;98068.56;4822506;29;19956;-72
2022/04/03 08:08:09;;;;;;;;;;;;;;;9.43;100.00;98071.88;4826588;29;20007;-74
2022/04/03 08:10:37;;;;;;;;;;;;;;;9.93;100.00;98081.91;4832594;29;19958;-75
2022/04/03 08:13:04;;;;;;;;;;;;;;;10.25;100.00;98079.13;4826092;29;19959;-73
2022/04/03 08:15:31;;;;;;;;;;;;;;;10.68;100.00;98076.25;4814433;29;20278;-74
2022/04/03 08:17:59;;;;;;;;;;;;;;;10.92;100.00;98084.56;4832994;29;19969;-75
2022/04/03 08:20:26;;;;;;;;;;;;;;;10.90;100.00;98086.97;4827392;29;19960;-75
2022/04/03 08:22:55;;;;;;;;;;;;;;;10.59;100.00;98081.47;4824641;29;20629;-74
2022/04/03 08:25:22;;;;;;;;;;;;;;;10.62;100.00;98097.41;4823314;29;19955;-74
2022/04/03 08:27:50;;;;;;;;;;;;;;;10.93;100.00;98094.53;4826079;29;19976;-75
2022/04/03 08:30:20;;;;;;;;;;;;;;;10.88;100.00;98096.97;4826407;29;19956;-74
2022/04/03 08:32:47;;;;;;;;;;;;;;;10.71;100.00;98098.59;4810614;29;19959;-74
2022/04/03 08:35:15;;;;;;;;;;;;;;;10.65;100.00;98103.00;4826412;29;19965;-75
2022/04/03 08:37:44;;;;;;;;;;;;;;;10.88;100.00;98106.13;4822903;29;19960;-76
2022/04/03 08:40:14;;;;;;;;;;;;;;;10.69;100.00;98105.78;4826808;29;20625;-75
2022/04/03 08:42:41;;;;;;;;;;;;;;;10.92;100.00;98115.31;4824178;29;19966;-75
2022/04/03 08:45:11;;;;;;;;;;;;;;;11.17;100.00;98118.03;4824334;29;19966;-75
2022/04/03 08:47:43;;;;;;;;;;;;;;;10.81;100.00;98116.56;4828867;29;19956;-75
2022/04/03 08:50:12;;;;;;;;;;;;;;;11.10;100.00;98121.63;4824285;29;19955;-74
2022/04/03 08:52:43;;;;;;;;;;;;;;;10.91;100.00;98127.72;4822995;29;20284;-75
2022/04/03 08:55:10;;;;;;;;;;;;;;;10.56;100.00;98131.38;4825149;29;19953;-74
2022/04/03 08:57:38;;;;;;;;;;;;;;;10.98;100.00;98133.28;4825679;29;19957;-74
2022/04/03 09:00:06;;;;;;;;;;;;;;;10.75;100.00;98144.16;4823884;29;19951;-74
2022/04/03 09:02:33;;;;;;;;;;;;;;;11.21;100.00;98141.19;4824075;29;19964;-75
2022/04/03 09:05:01;;;;;;;;;;;;;;;11.25;100.00;98152.41;4810627;29;19962;-79
2022/04/03 09:07:28;;;;;;;;;;;;;;;10.49;100.00;98142.56;4826632;29;19956;-75
2022/04/03 09:09:57;;;;;;;;;;;;;;;10.58;100.00;98144.97;4819633;29;20375;-73
2022/04/03 09:12:24;;;;;;;;;;;;;;;10.76;100.00;98151.31;4824675;29;19962;-73
2022/04/03 09:14:53;;;;;;;;;;;;;;;11.39;100.00;98161.53;4825102;29;20361;-73
2022/04/03 09:17:38;;;;;;;;;;;;;;;10.48;100.00;98160.56;4823329;29;19957;-73
2022/04/03 09:20:09;;;;;;;;;;;;;;;10.54;100.00;98147.75;4821998;29;19953;-73
2022/04/03 09:22:37;;;;;;;;;;;;;;;10.21;100.00;98158.56;4826633;29;19959;-73
2022/04/03 09:25:06;;;;;;;;;;;;;;;9.93;100.00;98161.31;4826394;29;19960;-72
2022/04/03 09:27:36;;;;;;;;;;;;;;;10.05;100.00;98156.13;4810370;29;19965;-73
2022/04/03 09:30:05;;;;;;;;;;;;;;;10.52;100.00;98157.75;4824850;29;19980;-75
2022/04/03 09:32:33;;;;;;;;;;;;;;;10.37;100.00;98167.34;4822918;29;19956;-75
2022/04/03 09:35:00;;;;;;;;;;;;;;;10.21;100.00;98164.97;4825742;29;20354;-73
2022/04/03 09:37:31;;;;;;;;;;;;;;;9.83;100.00;98168.44;4823893;29;20196;-73
2022/04/03 09:39:58;;;;;;;;;;;;;;;10.16;100.00;98170.13;4824813;29;19961;-74
2022/04/03 09:42:25;;;;;;;;;;;;;;;10.38;100.00;98174.53;4826404;29;20326;-74
2022/04/03 09:44:54;;;;;;;;;;;;;;;10.39;100.00;98159.38;4826030;29;19954;-75
2022/04/03 09:47:22;;;;;;;;;;;;;;;10.68;100.00;98163.72;4823048;29;19956;-74
2022/04/03 09:49:50;;;;;;;;;;;;;;;10.13;100.00;98152.16;4822919;29;19974;-73
2022/04/03 09:52:36;;;;;;;;;;;;;;;10.70;100.00;98163.31;4824759;29;19952;-74
2022/04/03 09:55:23;;;;;;;;;;;;;;;10.61;100.00;98165.75;4817201;29;20515;-72
2022/04/03 09:58:01;;;;;;;;;;;;;;;10.65;100.00;98164.53;4804228;29;19959;-73
2022/04/03 10:00:44;;;;;;;;;;;;;;;10.33;100.00;98169.34;4822209;29;19966;-73
2022/04/03 10:03:13;;;;;;;;;;;;;;;10.26;100.00;98172.94;4823971;29;19964;-73
2022/04/03 10:05:41;;;;;;;;;;;;;;;10.15;100.00;98176.94;4814566;29;19984;-73
2022/04/03 10:08:10;;;;;;;;;;;;;;;9.89;100.00;98176.06;4825451;29;19982;-73
2022/04/03 10:10:37;;;;;;;;;;;;;;;9.63;100.00;98175.59;4826448;29;19959;-73
2022/04/03 10:13:05;;;;;;;;;;;;;;;9.69;100.00;98174.81;4815237;29;19959;-73
2022/04/03 10:15:34;;;;;;;;;;;;;;;9.48;100.00;98168.38;4810916;29;20344;-73
2022/04/03 10:18:04;;;;;;;;;;;;;;;9.45;100.00;98169.97;4823976;29;19958;-73
2022/04/03 10:20:34;;;;;;;;;;;;;;;9.44;100.00;98162.78;4825838;29;19960;-73
2022/04/03 10:23:07;;;;;;;;;;;;;;;9.66;100.00;98170.00;4825260;29;19964;-72
2022/04/03 10:25:41;;;;;;;;;;;;;;;9.43;100.00;98168.75;4826049;29;19956;-72
2022/04/03 10:28:09;;;;;;;;;;;;;;;9.75;100.00;98175.25;4826186;29;19953;-72
2022/04/03 10:30:38;;;;;;;;;;;;;;;9.30;100.00;98182.25;4825379;29;20363;-75
2022/04/03 10:33:06;;;;;;;;;;;;;;;9.44;100.00;98175.94;4802241;29;19975;-74
2022/04/03 10:35:36;;;;;;;;;;;;;;;9.24;100.00;98179.03;4802845;29;20286;-73
2022/04/03 10:38:04;;;;;;;;;;;;;;;8.87;100.00;98183.25;4820917;29;19949;-73
2022/04/03 10:40:33;;;;;;;;;;;;;;;8.95;100.00;98173.72;4817979;29;19962;-72
2022/04/03 10:43:02;;;;;;;;;;;;;;;8.93;100.00;98173.28;4818168;29;19951;-73
2022/04/03 10:45:31;;;;;;;;;;;;;;;9.09;100.00;98179.38;4824545;29;19987;-74
2022/04/03 10:48:16;;;;;;;;;;;;;;;9.18;100.00;98171.44;4835393;29;20362;-72
2022/04/03 10:51:02;;;;;;;;;;;;;;;9.33;100.00;98180.66;4828920;29;20445;-73
2022/04/03 10:53:31;;;;;;;;;;;;;;;9.41;100.00;98182.31;4828977;29;19955;-73
2022/04/03 10:56:02;;;;;;;;;;;;;;;9.03;100.00;98181.72;4826687;29;20294;-73
2022/04/03 10:58:45;;;;;;;;;;;;;;;9.16;100.00;98182.19;4824876;29;19958;-72
2022/04/03 11:01:32;;;;;;;;;;;;;;;9.35;100.00;98187.47;4826281;29;19955;-73
2022/04/03 11:04:05;;;;;;;;;;;;;;;9.30;100.00;98193.41;4828030;29;19964;-73
2022/04/03 11:06:34;;;;;;;;;;;;;;;9.43;100.00;98186.31;4826022;29;19960;-73
2022/04/03 11:09:04;;;;;;;;;;;;;;;9.58;100.00;98187.16;4826048;29;19973;-72
2022/04/03 11:11:35;;;;;;;;;;;;;;;9.91;100.00;98189.63;4846286;29;19962;-73
2022/04/03 11:14:04;;;;;;;;;;;;;;;9.71;100.00;98194.75;4835196;29;20385;-74
2022/04/03 11:16:48;;;;;;;;;;;;;;;9.66;100.00;98199.91;4810564;29;19984;-76
2022/04/03 11:19:31;;;;;;;;;;;;;;;9.86;100.00;98185.22;4818641;29;20233;-75
2022/04/03 11:21:59;;;;;;;;;;;;;;;9.87;100.00;98195.22;4826685;29;19961;-73
2022/04/03 11:24:27;;;;;;;;;;;;;;;9.86;100.00;98193.59;4827230;29;19956;-74
2022/04/03 11:26:55;;;;;;;;;;;;;;;9.71;100.00;98189.19;4824249;29;19958;-73
2022/04/03 11:29:23;;;;;;;;;;;;;;;9.79;100.00;98199.19;4825102;29;19977;-73
2022/04/03 11:31:51;;;;;;;;;;;;;;;9.81;100.00;98191.19;4828041;29;19959;-73
2022/04/03 11:34:18;;;;;;;;;;;;;;;10.08;100.00;98196.44;4828224;29;19955;-73
2022/04/03 11:36:46;;;;;;;;;;;;;;;10.22;100.00;98191.69;4825953;29;19960;-74
2022/04/03 11:39:13;;;;;;;;;;;;;;;10.39;100.00;98188.09;4828475;29;19963;-74
2022/04/03 11:41:50;;;;;;;;;;;;;;;10.48;100.00;98185.72;4828571;29;19952;-73
2022/04/03 11:44:17;;;;;;;;;;;;;;;10.13;100.00;98196.88;4828292;29;19957;-73
2022/04/03 11:46:45;;;;;;;;;;;;;;;10.04;100.00;98187.25;4826866;29;19960;-73
2022/04/03 11:49:14;;;;;;;;;;;;;;;9.96;100.00;98186.44;4828221;29;19977;-73
2022/04/03 11:51:42;;;;;;;;;;;;;;;10.37;100.00;98182.13;4826055;29;19949;-73
2022/04/03 11:54:10;;;;;;;;;;;;;;;10.42;100.00;98186.50;4824607;29;19965;-74
2022/04/03 11:56:37;;;;;;;;;;;;;;;10.17;100.00;98185.72;4824951;29;19961;-74
2022/04/03 11:59:08;;;;;;;;;;;;;;;10.45;100.00;98180.13;4826652;29;20362;-74
2022/04/03 12:01:38;;;;;;;;;;;;;;;10.62;100.00;98170.13;4826802;29;20270;-74
2022/04/03 12:04:12;;;;;;;;;;;;;;;10.69;100.00;98181.28;4827311;29;19950;-73
2022/04/03 12:06:44;;;;;;;;;;;;;;;10.88;100.00;98167.66;4827614;29;19958;-73
2022/04/03 12:09:13;;;;;;;;;;;;;;;10.96;100.00;98165.66;4823532;29;19977;-74
2022/04/03 12:11:41;;;;;;;;;;;;;;;11.01;100.00;98174.44;4826808;29;19951;-74
2022/04/03 12:14:09;;;;;;;;;;;;;;;10.98;100.00;98164.06;4827120;29;20266;-74
2022/04/03 12:16:37;;;;;;;;;;;;;;;10.53;100.00;98162.16;4827431;29;19963;-74
2022/04/03 12:19:14;;;;;;;;;;;;;;;10.67;100.00;98164.13;4827887;29;19958;-74
2022/04/03 12:21:49;;;;;;;;;;;;;;;10.24;100.00;98164.16;4818527;29;19954;-74
2022/04/03 12:24:25;;;;;;;;;;;;;;;10.56;100.00;98156.53;4814329;29;19949;-74
2022/04/03 12:27:00;;;;;;;;;;;;;;;10.61;100.00;98160.94;4823761;29;19959;-74
2022/04/03 12:29:29;;;;;;;;;;;;;;;10.39;100.00;98153.78;4827505;29;19960;-74
2022/04/03 12:31:56;;;;;;;;;;;;;;;10.58;100.00;98147.78;4825895;29;19951;-74
2022/04/03 12:34:24;;;;;;;;;;;;;;;10.67;100.00;98156.53;4827524;29;19964;-74
2022/04/03 12:36:52;;;;;;;;;;;;;;;10.52;100.00;98150.16;4826546;29;20230;-74
2022/04/03 12:39:31;;;;;;;;;;;;;;;10.51;100.00;98156.94;4826470;29;19960;-74
2022/04/03 12:42:08;;;;;;;;;;;;;;;10.63;100.00;98163.34;4826902;29;19983;-74
2022/04/03 12:44:41;;;;;;;;;;;;;;;10.28;100.00;98158.56;4826666;29;19966;-74
2022/04/03 12:47:15;;;;;;;;;;;;;;;10.31;100.00;98154.97;4827813;29;19956;-74
2022/04/03 12:49:50;;;;;;;;;;;;;;;10.43;100.00;98160.97;4827236;29;19973;-74
2022/04/03 12:52:36;;;;;;;;;;;;;;;10.39;100.00;98146.16;4825487;29;20245;-74
2022/04/03 12:55:05;;;;;;;;;;;;;;;10.49;100.00;98148.16;4822461;29;19961;-74
2022/04/03 13:00:18;;;;;;;;;;;;;;;10.85;100.00;98160.09;4827070;29;19961;-74
2022/04/03 13:02:47;;;;;;;;;;;;;;;10.90;100.00;98144.91;4826377;29;19969;-74
2022/04/03 13:05:15;;;;;;;;;;;;;;;10.60;100.00;98153.75;4825770;29;19965;-74
2022/04/03 13:07:43;;;;;;;;;;;;;;;10.26;100.00;98150.59;4826514;29;19963;-74
2022/04/03 13:10:17;;;;;;;;;;;;;;;10.45;100.00;98146.56;4826588;29;19979;-74
2022/04/03 13:12:45;;;;;;;;;;;;;;;10.35;100.00;98141.78;4827117;29;19962;-74
2022/04/03 13:15:13;;;;;;;;;;;;;;;10.30;100.00;98142.19;4826869;29;19955;-74
2022/04/03 13:17:41;;;;;;;;;;;;;;;10.43;100.00;98138.59;4826324;29;19958;-74
2022/04/03 13:20:08;;;;;;;;;;;;;;;10.59;100.00;98129.00;4826622;29;19958;-74
2022/04/03 13:22:36;;;;;;;;;;;;;;;10.27;100.00;98132.59;4826022;29;19954;-74
2022/04/03 13:25:04;;;;;;;;;;;;;;;10.51;100.00;98128.97;4826092;29;19955;-74
2022/04/03 13:27:31;;;;;;;;;;;;;;;10.63;100.00;98129.78;4826752;29;19960;-74
2022/04/03 13:29:59;;;;;;;;;;;;;;;10.55;100.00;98140.19;4826507;29;19975;-74
2022/04/03 13:32:26;;;;;;;;;;;;;;;10.64;100.00;98126.56;4826530;29;19953;-74
2022/04/03 13:34:54;;;;;;;;;;;;;;;10.55;100.00;98131.78;4826618;29;19955;-74
2022/04/03 13:37:21;;;;;;;;;;;;;;;10.40;100.00;98133.00;4826442;29;19985;-74
2022/04/03 13:39:48;;;;;;;;;;;;;;;10.62;100.00;98133.75;4810683;29;20252;-74
2022/04/03 13:42:16;;;;;;;;;;;;;;;10.68;100.00;98135.78;4826932;29;20207;-74
2022/04/03 13:44:43;;;;;;;;;;;;;;;10.84;100.00;98127.72;4826114;29;20372;-74
2022/04/03 13:47:11;;;;;;;;;;;;;;;11.03;100.00;98129.25;4826726;29;19976;-74
2022/04/03 13:49:38;;;;;;;;;;;;;;;10.70;100.00;98129.75;4826394;29;19970;-74
2022/04/03 13:52:06;;;;;;;;;;;;;;;10.77;100.00;98121.34;4826338;29;19973;-74
2022/04/03 13:54:33;;;;;;;;;;;;;;;11.08;100.00;98123.25;4826835;29;19951;-74
2022/04/03 13:57:01;;;;;;;;;;;;;;;10.94;97.47;98115.72;4825847;29;20275;-74
2022/04/03 13:59:28;;;;;;;;;;;;;;;10.81;100.00;98120.13;4826128;29;20259;-74
2022/04/03 14:01:57;;;;;;;;;;;;;;;10.56;100.00;98113.81;4826605;29;19954;-74
2022/04/03 14:04:24;;;;;;;;;;;;;;;10.56;100.00;98119.41;4826648;29;19963;-74
2022/04/03 14:06:51;;;;;;;;;;;;;;;10.38;100.00;98118.63;4826313;29;19955;-74
2022/04/03 14:09:19;;;;;;;;;;;;;;;10.25;100.00;98125.81;4824658;29;19977;-74
2022/04/03 14:11:46;;;;;;;;;;;;;;;10.05;100.00;98124.63;4825572;29;19980;-74
2022/04/03 14:14:14;;;;;;;;;;;;;;;9.91;100.00;98122.59;4828053;29;19957;-74
2022/04/03 14:16:41;;;;;;;;;;;;;;;9.87;100.00;98125.41;4826591;29;20374;-74
2022/04/03 14:19:08;;;;;;;;;;;;;;;9.72;100.00;98134.94;4829087;29;20341;-74
2022/04/03 14:21:38;;;;;;;;;;;;;;;9.61;100.00;98124.97;4824706;29;19961;-74
2022/04/03 14:24:08;;;;;;;;;;;;;;;9.74;100.00;98117.78;4827479;29;19956;-74
2022/04/03 14:26:35;;;;;;;;;;;;;;;9.97;100.00;98123.81;4829626;29;19961;-74
2022/04/03 14:29:04;;;;;;;;;;;;;;;9.77;100.00;98122.56;4829271;29;19955;-74
2022/04/03 14:31:31;;;;;;;;;;;;;;;9.74;100.00;98124.16;4829148;29;19981;-74
2022/04/03 14:33:58;;;;;;;;;;;;;;;9.84;100.00;98130.97;4829672;29;19956;-74
2022/04/03 14:36:26;;;;;;;;;;;;;;;10.04;100.00;98132.19;4827571;29;19962;-74
2022/04/03 14:38:54;;;;;;;;;;;;;;;9.89;100.00;98116.59;4827766;29;20026;-74
2022/04/03 14:41:21;;;;;;;;;;;;;;;9.88;100.00;98121.38;4829684;29;19962;-74
2022/04/03 14:43:48;;;;;;;;;;;;;;;9.93;100.00;98129.38;4827626;29;20361;-74
2022/04/03 14:46:18;;;;;;;;;;;;;;;9.86;100.00;98118.19;4827240;29;19956;-74
2022/04/03 14:48:45;;;;;;;;;;;;;;;9.76;100.00;98129.34;4817246;29;20354;-74
2022/04/03 14:51:13;;;;;;;;;;;;;;;9.86;100.00;98131.34;4819061;29;19974;-74
2022/04/03 14:53:40;;;;;;;;;;;;;;;9.86;100.00;98129.38;4828172;29;20229;-74
2022/04/03 14:56:08;;;;;;;;;;;;;;;9.91;100.00;98125.38;4828769;29;19958;-74
2022/04/03 14:58:35;;;;;;;;;;;;;;;9.95;100.00;98139.38;4828675;29;20247;-74
2022/04/03 15:01:03;;;;;;;;;;;;;;;9.93;100.00;98129.38;4824791;29;19955;-74
2022/04/03 15:03:30;;;;;;;;;;;;;;;9.95;100.00;98125.41;4827548;29;19965;-73
2022/04/03 15:05:57;;;;;;;;;;;;;;;9.89;100.00;98139.75;4812815;29;19962;-74
2022/04/03 15:08:24;;;;;;;;;;;;;;;9.91;100.00;98137.34;4825203;29;19984;-74
2022/04/03 15:10:52;;;;;;;;;;;;;;;9.81;100.00;98135.34;4822414;29;19972;-74
2022/04/03 15:13:19;;;;;;;;;;;;;;;9.80;100.00;98142.16;4823948;29;19954;-74
2022/04/03 15:15:47;;;;;;;;;;;;;;;9.55;100.00;98138.50;4824809;29;19951;-74
2022/04/03 15:18:14;;;;;;;;;;;;;;;9.64;100.00;98141.69;4822306;29;19969;-74
2022/04/03 15:20:41;;;;;;;;;;;;;;;9.62;100.00;98158.06;4827057;29;19962;-73
2022/04/03 15:23:10;;;;;;;;;;;;;;;9.47;100.00;98147.22;4827946;29;19958;-74
2022/04/03 15:25:38;;;;;;;;;;;;;;;9.44;100.00;98156.41;4827955;29;20271;-74
2022/04/03 15:28:05;;;;;;;;;;;;;;;9.33;100.00;98159.16;4827939;29;19959;-73
2022/04/03 15:30:33;;;;;;;;;;;;;;;9.25;100.00;98157.53;4828378;29;19953;-74
2022/04/03 15:33:00;;;;;;;;;;;;;;;9.09;100.00;98157.88;4828550;29;19955;-74
2022/04/03 15:35:27;;;;;;;;;;;;;;;8.97;100.00;98160.19;4828548;29;19953;-74
2022/04/03 15:37:55;;;;;;;;;;;;;;;8.84;100.00;98156.13;4825278;29;19967;-74
2022/04/03 15:40:25;;;;;;;;;;;;;;;8.73;100.00;98158.06;4820952;29;19954;-74
2022/04/03 15:42:53;;;;;;;;;;;;;;;8.60;100.00;98160.38;4821121;29;19961;-75
2022/04/03 15:45:21;;;;;;;;;;;;;;;8.42;100.00;98167.78;4825586;29;20247;-75
2022/04/03 15:47:48;;;;;;;;;;;;;;;8.34;100.00;98164.16;4826494;29;19958;-74
2022/04/03 15:50:16;;;;;;;;;;;;;;;8.40;100.00;98162.63;4811750;29;19953;-74
2022/04/03 15:52:43;;;;;;;;;;;;;;;8.17;100.00;98167.56;4813459;29;19975;-74
2022/04/03 15:55:10;;;;;;;;;;;;;;;8.03;100.00;98159.09;4824801;29;19989;-74
2022/04/03 15:57:40;;;;;;;;;;;;;;;7.94;100.00;98162.22;4826198;29;20266;-74
2022/04/03 16:00:09;;;;;;;;;;;;;;;7.94;100.00;98172.53;4827041;29;19959;-74
2022/04/03 16:02:36;;;;;;;;;;;;;;;7.87;100.00;98173.25;4809142;29;19967;-74
2022/04/03 16:05:04;;;;;;;;;;;;;;;7.88;100.00;98171.28;4821875;29;19953;-74
2022/04/03 16:07:33;;;;;;;;;;;;;;;7.84;100.00;98170.47;4825877;29;19954;-74
2022/04/03 16:10:24;;;;;;;;;;;;;;;7.65;100.00;98168.69;4827136;29;19986;-74
2022/04/03 16:12:49;;;;;;;;;;;;;;;7.61;100.00;98170.63;4825849;29;19966;-74
2022/04/03 16:15:16;;;;;;;;;;;;;;;7.56;100.00;98172.94;4824211;29;19956;-74
2022/04/03 16:17:46;;;;;;;;;;;;;;;7.53;100.00;98166.16;4824810;29;19962;-74
2022/04/03 16:20:14;;;;;;;;;;;;;;;7.38;100.00;98166.38;4824879;29;19960;-74
2022/04/03 16:22:42;;;;;;;;;;;;;;;7.40;100.00;98172.38;4826956;29;19953;-74
2022/04/03 16:25:10;;;;;;;;;;;;;;;7.49;100.00;98172.84;4826576;29;20359;-73
2022/04/03 16:27:38;;;;;;;;;;;;;;;7.51;100.00;98173.28;4824079;29;20251;-74
2022/04/03 16:30:07;;;;;;;;;;;;;;;7.30;100.00;98179.41;4819297;29;20223;-74
2022/04/03 16:32:35;;;;;;;;;;;;;;;7.27;100.00;98180.16;4810813;29;19976;-74
2022/04/03 16:35:03;;;;;;;;;;;;;;;7.23;100.00;98168.19;4818888;29;19960;-74
2022/04/03 16:37:31;;;;;;;;;;;;;;;7.16;100.00;98182.78;4817564;29;19959;-75
2022/04/03 16:39:58;;;;;;;;;;;;;;;7.08;100.00;98181.13;4826886;29;19956;-74
2022/04/03 16:42:26;;;;;;;;;;;;;;;7.04;100.00;98182.25;4827675;29;20353;-74
2022/04/03 16:44:53;;;;;;;;;;;;;;;6.99;100.00;98185.38;4827561;29;19957;-74
2022/04/03 16:47:20;;;;;;;;;;;;;;;6.96;100.00;98181.38;4811344;29;19972;-74
2022/04/03 16:49:49;;;;;;;;;;;;;;;6.97;100.00;98182.19;4826801;29;19959;-74
2022/04/03 16:52:16;;;;;;;;;;;;;;;6.95;100.00;98182.53;4827056;29;20238;-74
2022/04/03 16:54:44;;;;;;;;;;;;;;;6.95;100.00;98181.72;4826520;29;19958;-74
2022/04/03 16:57:12;;;;;;;;;;;;;;;6.88;100.00;98188.00;4826642;29;19959;-74
2022/04/03 16:59:39;;;;;;;;;;;;;;;6.95;100.00;98187.28;4811155;29;19956;-74
2022/04/03 17:02:07;;;;;;;;;;;;;;;7.01;100.00;98191.34;4827142;29;19951;-74
2022/04/03 17:04:34;;;;;;;;;;;;;;;6.93;100.00;98186.88;4814586;29;19975;-74
2022/04/03 17:07:02;;;;;;;;;;;;;;;6.93;100.00;98197.97;4823484;29;20352;-74
2022/04/03 17:09:29;;;;;;;;;;;;;;;6.97;100.00;98190.50;4822733;29;19981;-74
2022/04/03 17:11:57;;;;;;;;;;;;;;;7.03;100.00;98195.34;4811674;29;19985;-74
2022/04/03 17:14:24;;;;;;;;;;;;;;;7.02;100.00;98198.50;4826441;29;19953;-74
2022/04/03 17:16:51;;;;;;;;;;;;;;;7.10;100.00;98195.44;4826161;29;19960;-74
2022/04/03 17:19:19;;;;;;;;;;;;;;;7.13;100.00;98200.25;4822286;29;19961;-74
2022/04/03 17:21:48;;;;;;;;;;;;;;;7.05;100.00;98195.78;4825846;29;20350;-74
2022/04/03 17:24:15;;;;;;;;;;;;;;;7.06;100.00;98197.38;4818530;29;20350;-74
2022/04/03 17:26:44;;;;;;;;;;;;;;;7.12;100.00;98198.66;4818374;29;19964;-74
2022/04/03 17:29:13;;;;;;;;;;;;;;;7.12;100.00;98204.22;4825182;29;19954;-81
2022/04/03 17:31:43;;;;;;;;;;;;;;;7.13;100.00;98207.78;4805655;29;19959;-74
2022/04/03 17:34:10;;;;;;;;;;;;;;;7.10;100.00;98203.78;4823598;29;19964;-75
2022/04/03 17:36:39;;;;;;;;;;;;;;;7.12;100.00;98211.75;4825678;29;19954;-74
2022/04/03 17:39:08;;;;;;;;;;;;;;;7.05;100.00;98211.66;4818623;29;19958;-74
2022/04/03 17:41:35;;;;;;;;;;;;;;;7.05;100.00;98211.66;4816898;29;19956;-74
2022/04/03 17:44:06;;;;;;;;;;;;;;;7.07;100.00;98217.63;4811172;29;19953;-74
2022/04/03 17:46:34;;;;;;;;;;;;;;;7.03;100.00;98211.22;4817088;29;19962;-74
2022/04/03 17:49:01;;;;;;;;;;;;;;;7.05;100.00;98220.78;4824536;29;19960;-73
2022/04/03 17:51:29;;;;;;;;;;;;;;;7.03;100.00;98220.38;4816838;29;19971;-74
2022/04/03 17:53:56;;;;;;;;;;;;;;;7.09;100.00;98221.63;4818816;29;19975;-81
2022/04/03 17:56:24;;;;;;;;;;;;;;;7.02;100.00;98227.09;4811488;29;19962;-75
2022/04/03 17:58:51;;;;;;;;;;;;;;;7.02;100.00;98229.88;4820993;29;19973;-75
2022/04/03 18:01:19;;;;;;;;;;;;;;;7.03;100.00;98230.69;4822333;29;19973;-75
2022/04/03 18:03:46;;;;;;;;;;;;;;;7.06;100.00;98241.88;4820222;29;19967;-74
2022/04/03 18:06:14;;;;;;;;;;;;;;;7.06;100.00;98238.28;4817827;29;20558;-75
2022/04/03 18:08:43;;;;;;;;;;;;;;;7.17;100.00;98247.56;4816017;29;19980;-74
2022/04/03 18:11:15;;;;;;;;;;;;;;;7.16;100.00;98245.97;4847660;29;20261;-74
2022/04/03 18:13:44;;;;;;;;;;;;;;;7.18;100.00;98254.75;4847414;29;20057;-74
2022/04/03 18:16:13;;;;;;;;;;;;;;;7.17;100.00;98259.50;4828693;29;19954;-74
2022/04/03 18:18:40;;;;;;;;;;;;;;;7.20;100.00;98269.06;4810931;29;19965;-74
2022/04/03 18:21:08;;;;;;;;;;;;;;;7.24;100.00;98267.13;4810989;29;19954;-74
2022/04/03 18:23:37;;;;;;;;;;;;;;;7.34;100.00;98274.00;4811215;29;19955;-74
2022/04/03 18:26:05;;;;;;;;;;;;;;;7.36;100.00;98275.22;4810612;29;19988;-74
2022/04/03 18:28:32;;;;;;;;;;;;;;;7.36;100.00;98280.78;4826665;29;20236;-74
2022/04/03 18:31:02;;;;;;;;;;;;;;;7.41;100.00;98285.25;4818739;29;19967;-74
2022/04/03 18:33:30;;;;;;;;;;;;;;;7.44;100.00;98293.63;4825106;29;19974;-74
2022/04/03 18:36:03;;;;;;;;;;;;;;;7.48;100.00;98290.91;4795401;29;19954;-74
2022/04/03 18:38:31;;;;;;;;;;;;;;;7.51;100.00;98296.50;4810752;29;19971;-74
2022/04/03 18:40:59;;;;;;;;;;;;;;;7.50;100.00;98306.03;4810825;29;19965;-74
2022/04/03 18:43:26;;;;;;;;;;;;;;;7.46;100.00;98310.75;4822725;29;19960;-74
2022/04/03 18:45:54;;;;;;;;;;;;;;;7.45;100.00;98308.34;4828256;29;19954;-74
2022/04/03 18:48:21;;;;;;;;;;;;;;;7.27;100.00;98308.09;4828853;29;19953;-74
2022/04/03 18:50:50;;;;;;;;;;;;;;;7.18;100.00;98319.50;4822315;29;19959;-74
2022/04/03 18:53:20;;;;;;;;;;;;;;;7.12;100.00;98321.00;4811024;29;20270;-74
2022/04/03 18:55:48;;;;;;;;;;;;;;;7.02;100.00;98332.75;4810753;29;19961;-73
2022/04/03 18:58:17;;;;;;;;;;;;;;;7.00;100.00;98325.94;4810915;29;19958;-74
2022/04/03 19:00:45;;;;;;;;;;;;;;;6.91;100.00;98334.56;4810203;29;19958;-74
2022/04/03 19:03:13;;;;;;;;;;;;;;;6.77;100.00;98337.13;4809376;29;19962;-74
2022/04/03 19:05:41;;;;;;;;;;;;;;;6.68;100.00;98332.97;4813916;29;19953;-74
2022/04/03 19:08:09;;;;;;;;;;;;;;;6.59;100.00;98341.56;4818155;29;19976;-74
2022/04/03 19:10:39;;;;;;;;;;;;;;;6.58;100.00;98345.50;4810205;29;19953;-74
2022/04/03 19:13:07;;;;;;;;;;;;;;;6.56;100.00;98348.66;4809899;29;20274;-74
2022/04/03 19:15:35;;;;;;;;;;;;;;;6.59;100.00;98353.50;4818807;29;19950;-74
2022/04/03 19:18:03;;;;;;;;;;;;;;;6.56;100.00;98350.63;4828086;29;19954;-74
2022/04/03 19:20:30;;;;;;;;;;;;;;;6.56;100.00;98357.00;4827563;29;19956;-74
2022/04/03 19:22:57;;;;;;;;;;;;;;;6.56;100.00;98368.13;4822551;29;19955;-74
2022/04/03 19:25:25;;;;;;;;;;;;;;;6.56;100.00;98372.88;4827750;29;19958;-74
2022/04/03 19:27:52;;;;;;;;;;;;;;;6.52;100.00;98372.00;4833386;29;19954;-74
